Terminal Aerodrome Forecast
Issued by NWS

Home | Current Version | Previous Version | Text Only | Print | Product List | Glossary On
Versions: 1 2 3 4 5 6 7 8 9 10 11 12
430
FTUS42 TJSJ 191720
TAFJMZ
TAF
TJMZ 191720Z 1918/2018 07015KT P6SM SCT040
     FM192300 07010KT P6SM FEW060
     FM201300 07015KT P6SM SCT040
      AMD NOT SKED=

USA.gov is the U.S. government's official web portal to all federal, state and local government web resources and services.